Meteo Giornale » Osservazioni meteo Stati Uniti (USA) » College Station Easterwood Fld
ore: 20:53 - Osservazioni Meteo College Station Easterwood Fld
Lat. 30° 34' N Lon. 96° 21' W Alt. 97 metri s.l.m.
32 °C
Nuvoloso
Temp. 24 Ore
24 °C
37 °C
Est/Sud-Est
14.8 Km/h
Dew point 22 °C
Umidità 55 %
Visibilità 10 Km
Il sole sorge alle ore 07:01
Il sole tramonta alle ore 19:49
| Data e Ora | Cielo e Fenomeni | T °C | DP °C | Um. % | Pres. hPa | Vis. km | Vento km/h | |
|---|---|---|---|---|---|---|---|---|
| Oggi h: 20:53 | Nuvoloso | 32 | 22 | 55 | 1013 | 10 | E/SE 14.8 | |
| Oggi h: 19:53 | Nuvoloso | 33 | 21 | 49 | 1013 | 10 | SE 20.3 | |
| Oggi h: 18:53 | Sereno | 36 | 19 | 36 | 1012 | 10 | S/SE 14.8 | |
| Oggi h: 17:53 | Sereno | 37 | 19 | 35 | 1012 | 10 | S/SE 20.3 | |
| Oggi h: 16:53 | Poco Nuvoloso | 37 | 18 | 32 | 1013 | 10 | S 13 | |
| Oggi h: 15:53 | Sereno | 37 | 19 | 35 | 1014 | 10 | S/SE 11.1 | |
| Oggi h: 14:53 | Poco Nuvoloso | 37 | 18 | 32 | 1015 | 10 | SE 11.1 | |
| Oggi h: 13:53 | Nuvoloso | 37 | 20 | 37 | 1016 | 10 | SE 14.8 | |
| Oggi h: 12:53 | Nuvoloso | 36 | 20 | 39 | 1016 | 10 | SE 13 | |
| Oggi h: 11:53 | Sereno | 33 | 21 | 49 | 1017 | 10 | N 0 | |
| Oggi h: 10:53 | Sereno | 32 | 23 | 59 | 1017 | 10 | N 11.1 | |
| Oggi h: 09:53 | Poco Nuvoloso | 30 | 24 | 70 | 1017 | 10 | N 11.1 | |
| Oggi h: 08:53 | Sereno | 27 | 24 | 83 | 1017 | 10 | N 0 | |
| Oggi h: 07:53 | Sereno | 25 | 23 | 88 | 1016 | 10 | N 0 | |
| Oggi h: 06:53 | Sereno | 24 | 23 | 94 | 1016 | 10 | N 0 | |
| Oggi h: 05:53 | Sereno | 25 | 23 | 88 | 1015 | 10 | N 0 | |
| Oggi h: 04:53 | Sereno | 25 | 23 | 88 | 1015 | 10 | N 5.5 | |
| Oggi h: 03:53 | Sereno | 25 | 23 | 88 | 1015 | 10 | S 7.4 | |
| Oggi h: 02:53 | Sereno | 26 | 22 | 78 | 1015 | 10 | S 7.4 | |
| Oggi h: 01:53 | Sereno | 26 | 22 | 78 | 1016 | 10 | S 7.4 | |
| Oggi h: 00:53 | Sereno | 28 | 22 | 69 | 1016 | 10 | S 9.3 | |
| Ieri h: 23:53 | Sereno | 28 | 22 | 69 | 1015 | 10 | S 13 | |
| Ieri h: 22:53 | Sereno | 29 | 22 | 66 | 1015 | 10 | S 11.1 | |
| Ieri h: 21:53 | Sereno | 30 | 20 | 55 | 1014 | 10 | S 11.1 | |



